sensor_id;sensor_type;location;lat;lon;timestamp;pressure;altitude;pressure_sealevel;temperature;humidity
43621;BME280;29213;50.770;7.298;2023-05-20T00:00:12;101430.75;;;10.26;52.81
43621;BME280;29213;50.770;7.298;2023-05-20T00:02:38;101382.56;;;9.89;52.79
43621;BME280;29213;50.770;7.298;2023-05-20T00:05:04;101387.63;;;9.93;52.92
43621;BME280;29213;50.770;7.298;2023-05-20T00:07:30;101426.72;;;10.12;53.02
43621;BME280;29213;50.770;7.298;2023-05-20T00:09:56;101376.69;;;9.76;52.86
43621;BME280;29213;50.770;7.298;2023-05-20T00:12:21;101453.75;;;10.17;52.72
43621;BME280;29213;50.770;7.298;2023-05-20T00:14:46;101449.53;;;10.14;52.61
43621;BME280;29213;50.770;7.298;2023-05-20T00:17:12;101437.34;;;10.12;53.19
43621;BME280;29213;50.770;7.298;2023-05-20T00:19:37;101398.53;;;9.80;53.10
43621;BME280;29213;50.770;7.298;2023-05-20T00:22:03;101391.94;;;9.64;53.04
43621;BME280;29213;50.770;7.298;2023-05-20T00:24:29;101439.44;;;9.98;53.18
43621;BME280;29213;50.770;7.298;2023-05-20T00:26:54;101317.09;;;9.18;53.39
43621;BME280;29213;50.770;7.298;2023-05-20T00:29:20;101440.13;;;9.90;53.48
43621;BME280;29213;50.770;7.298;2023-05-20T00:31:46;101367.34;;;9.41;53.41
43621;BME280;29213;50.770;7.298;2023-05-20T00:34:11;101295.66;;;9.00;53.53
43621;BME280;29213;50.770;7.298;2023-05-20T00:36:37;101324.34;;;9.06;53.55
43621;BME280;29213;50.770;7.298;2023-05-20T00:39:02;101349.28;;;9.25;53.54
43621;BME280;29213;50.770;7.298;2023-05-20T00:41:28;101364.97;;;9.28;53.64
43621;BME280;29213;50.770;7.298;2023-05-20T00:43:54;101426.25;;;9.67;53.66
43621;BME280;29213;50.770;7.298;2023-05-20T00:46:20;101399.47;;;9.49;53.86
43621;BME280;29213;50.770;7.298;2023-05-20T00:48:46;101412.91;;;9.47;53.90
43621;BME280;29213;50.770;7.298;2023-05-20T00:51:12;101356.09;;;9.07;53.89
43621;BME280;29213;50.770;7.298;2023-05-20T00:53:38;101419.75;;;9.50;53.77
43621;BME280;29213;50.770;7.298;2023-05-20T00:56:04;101368.84;;;9.14;53.72
43621;BME280;29213;50.770;7.298;2023-05-20T00:58:30;101337.19;;;8.91;53.82
43621;BME280;29213;50.770;7.298;2023-05-20T01:00:56;101352.13;;;8.92;53.86
43621;BME280;29213;50.770;7.298;2023-05-20T01:03:21;101418.56;;;9.33;53.85
43621;BME280;29213;50.770;7.298;2023-05-20T01:05:47;101322.94;;;8.70;54.14
43621;BME280;29213;50.770;7.298;2023-05-20T01:08:12;101353.78;;;8.83;54.39
43621;BME280;29213;50.770;7.298;2023-05-20T01:10:41;101392.16;;;9.10;54.40
43621;BME280;29213;50.770;7.298;2023-05-20T01:13:10;101235.91;;;8.12;54.25
43621;BME280;29213;50.770;7.298;2023-05-20T01:15:39;101339.34;;;8.76;54.38
43621;BME280;29213;50.770;7.298;2023-05-20T01:18:07;101408.84;;;9.12;54.34
43621;BME280;29213;50.770;7.298;2023-05-20T01:20:35;101218.09;;;7.93;54.44
43621;BME280;29213;50.770;7.298;2023-05-20T01:23:01;101418.19;;;9.06;54.43
43621;BME280;29213;50.770;7.298;2023-05-20T01:25:27;101386.22;;;8.87;54.48
43621;BME280;29213;50.770;7.298;2023-05-20T01:27:54;101261.41;;;8.03;54.76
43621;BME280;29213;50.770;7.298;2023-05-20T01:30:23;101327.75;;;8.46;54.66
43621;BME280;29213;50.770;7.298;2023-05-20T01:33:05;101403.84;;;8.88;55.15
43621;BME280;29213;50.770;7.298;2023-05-20T01:35:32;101404.69;;;8.88;54.98
43621;BME280;29213;50.770;7.298;2023-05-20T01:37:59;101254.25;;;7.94;54.86
43621;BME280;29213;50.770;7.298;2023-05-20T01:40:26;101323.38;;;8.35;55.04
43621;BME280;29213;50.770;7.298;2023-05-20T01:42:52;101355.13;;;8.46;55.13
43621;BME280;29213;50.770;7.298;2023-05-20T01:45:19;101400.69;;;8.73;55.15
43621;BME280;29213;50.770;7.298;2023-05-20T01:47:45;101309.78;;;8.07;55.36
43621;BME280;29213;50.770;7.298;2023-05-20T01:50:10;101325.63;;;8.18;55.39
43621;BME280;29213;50.770;7.298;2023-05-20T01:52:36;101369.00;;;8.50;55.28
43621;BME280;29213;50.770;7.298;2023-05-20T01:55:01;101286.88;;;7.94;55.37
43621;BME280;29213;50.770;7.298;2023-05-20T01:57:26;101344.38;;;8.26;55.49
43621;BME280;29213;50.770;7.298;2023-05-20T01:59:52;101399.59;;;8.54;55.39
43621;BME280;29213;50.770;7.298;2023-05-20T02:02:17;101312.31;;;7.97;55.61
43621;BME280;29213;50.770;7.298;2023-05-20T02:04:44;101370.53;;;8.31;55.55
43621;BME280;29213;50.770;7.298;2023-05-20T02:07:16;101361.00;;;8.28;55.55
43621;BME280;29213;50.770;7.298;2023-05-20T02:09:43;101289.88;;;7.80;55.57
43621;BME280;29213;50.770;7.298;2023-05-20T02:12:09;101366.03;;;8.22;55.63
43621;BME280;29213;50.770;7.298;2023-05-20T02:14:40;101368.53;;;8.23;56.03
43621;BME280;29213;50.770;7.298;2023-05-20T02:17:05;101288.09;;;7.69;56.11
43621;BME280;29213;50.770;7.298;2023-05-20T02:19:31;101308.56;;;7.78;55.76
43621;BME280;29213;50.770;7.298;2023-05-20T02:21:56;101364.13;;;8.12;55.82
43621;BME280;29213;50.770;7.298;2023-05-20T02:24:21;101246.31;;;7.40;55.72
43621;BME280;29213;50.770;7.298;2023-05-20T02:26:47;101330.22;;;7.83;56.20
43621;BME280;29213;50.770;7.298;2023-05-20T02:29:15;101349.56;;;7.95;56.20
43621;BME280;29213;50.770;7.298;2023-05-20T02:31:41;101363.28;;;8.00;56.10
43621;BME280;29213;50.770;7.298;2023-05-20T02:34:06;101344.94;;;7.87;56.38
43621;BME280;29213;50.770;7.298;2023-05-20T02:36:32;101386.31;;;8.11;56.15
43621;BME280;29213;50.770;7.298;2023-05-20T02:38:57;101297.94;;;7.57;56.18
43621;BME280;29213;50.770;7.298;2023-05-20T02:41:23;101339.41;;;7.79;56.11
43621;BME280;29213;50.770;7.298;2023-05-20T02:43:48;101265.28;;;7.23;56.33
43621;BME280;29213;50.770;7.298;2023-05-20T02:46:14;101335.25;;;7.65;56.33
43621;BME280;29213;50.770;7.298;2023-05-20T02:48:40;101365.81;;;7.81;55.98
43621;BME280;29213;50.770;7.298;2023-05-20T02:51:05;101169.13;;;6.67;56.71
43621;BME280;29213;50.770;7.298;2023-05-20T02:53:31;101378.03;;;7.93;56.31
43621;BME280;29213;50.770;7.298;2023-05-20T02:55:56;101376.59;;;7.89;56.58
43621;BME280;29213;50.770;7.298;2023-05-20T02:58:22;101295.34;;;7.34;56.68
43621;BME280;29213;50.770;7.298;2023-05-20T03:00:51;101379.66;;;7.84;56.50
43621;BME280;29213;50.770;7.298;2023-05-20T03:03:16;101322.25;;;7.50;56.36
43621;BME280;29213;50.770;7.298;2023-05-20T03:05:42;101347.78;;;7.63;56.35
43621;BME280;29213;50.770;7.298;2023-05-20T03:08:10;101167.94;;;6.49;56.42
43621;BME280;29213;50.770;7.298;2023-05-20T03:10:39;101277.69;;;7.12;56.42
43621;BME280;29213;50.770;7.298;2023-05-20T03:13:06;101381.84;;;7.79;56.46
43621;BME280;29213;50.770;7.298;2023-05-20T03:15:36;101292.34;;;7.27;56.63
43621;BME280;29213;50.770;7.298;2023-05-20T03:18:01;101311.69;;;7.39;56.71
43621;BME280;29213;50.770;7.298;2023-05-20T03:20:27;101257.25;;;7.02;56.46
43621;BME280;29213;50.770;7.298;2023-05-20T03:22:57;101347.44;;;7.56;56.46
43621;BME280;29213;50.770;7.298;2023-05-20T03:25:23;101217.09;;;6.74;56.57
43621;BME280;29213;50.770;7.298;2023-05-20T03:27:48;101388.97;;;7.67;56.33
43621;BME280;29213;50.770;7.298;2023-05-20T03:30:14;101321.84;;;7.34;56.74
43621;BME280;29213;50.770;7.298;2023-05-20T03:32:39;101342.19;;;7.45;56.68
43621;BME280;29213;50.770;7.298;2023-05-20T03:35:05;101169.97;;;6.34;56.69
43621;BME280;29213;50.770;7.298;2023-05-20T03:37:31;101378.03;;;7.60;56.79
43621;BME280;29213;50.770;7.298;2023-05-20T03:39:56;101311.63;;;7.18;57.04
43621;BME280;29213;50.770;7.298;2023-05-20T03:42:22;101307.69;;;7.12;56.58
43621;BME280;29213;50.770;7.298;2023-05-20T03:44:48;101296.97;;;7.02;56.87
43621;BME280;29213;50.770;7.298;2023-05-20T03:47:13;101293.50;;;7.02;56.59
43621;BME280;29213;50.770;7.298;2023-05-20T03:49:39;101288.34;;;6.89;56.38
43621;BME280;29213;50.770;7.298;2023-05-20T03:52:05;101379.28;;;7.45;56.54
43621;BME280;29213;50.770;7.298;2023-05-20T03:54:31;101341.25;;;7.23;56.65
43621;BME280;29213;50.770;7.298;2023-05-20T03:56:56;101243.47;;;6.64;56.61
43621;BME280;29213;50.770;7.298;2023-05-20T03:59:21;101384.81;;;7.42;56.76
43621;BME280;29213;50.770;7.298;2023-05-20T04:01:47;101229.66;;;6.49;56.96
43621;BME280;29213;50.770;7.298;2023-05-20T04:04:13;101312.53;;;6.95;57.15
43621;BME280;29213;50.770;7.298;2023-05-20T04:06:38;101349.47;;;7.20;57.12
43621;BME280;29213;50.770;7.298;2023-05-20T04:09:05;101378.81;;;7.40;57.27
43621;BME280;29213;50.770;7.298;2023-05-20T04:11:30;101336.56;;;7.15;57.34
43621;BME280;29213;50.770;7.298;2023-05-20T04:13:56;101343.91;;;7.12;56.88
43621;BME280;29213;50.770;7.298;2023-05-20T04:16:22;101331.06;;;7.07;57.13
43621;BME280;29213;50.770;7.298;2023-05-20T04:18:48;101310.69;;;6.96;57.05
43621;BME280;29213;50.770;7.298;2023-05-20T04:21:14;101383.41;;;7.38;56.99
43621;BME280;29213;50.770;7.298;2023-05-20T04:23:40;101260.44;;;6.62;56.85
43621;BME280;29213;50.770;7.298;2023-05-20T04:26:05;101311.78;;;6.93;57.23
43621;BME280;29213;50.770;7.298;2023-05-20T04:28:31;101289.06;;;6.79;57.42
43621;BME280;29213;50.770;7.298;2023-05-20T04:31:00;101380.59;;;7.39;57.48
43621;BME280;29213;50.770;7.298;2023-05-20T04:33:29;101382.44;;;7.39;57.53
43621;BME280;29213;50.770;7.298;2023-05-20T04:35:55;101278.34;;;6.81;57.34
43621;BME280;29213;50.770;7.298;2023-05-20T04:38:24;101336.56;;;7.15;57.56
43621;BME280;29213;50.770;7.298;2023-05-20T04:40:56;101388.69;;;7.49;57.85
43621;BME280;29213;50.770;7.298;2023-05-20T04:43:23;101355.06;;;7.38;57.48
43621;BME280;29213;50.770;7.298;2023-05-20T04:45:49;101314.19;;;7.08;57.70
43621;BME280;29213;50.770;7.298;2023-05-20T04:48:14;101317.91;;;7.17;58.02
43621;BME280;29213;50.770;7.298;2023-05-20T04:50:40;101312.84;;;7.14;58.11
43621;BME280;29213;50.770;7.298;2023-05-20T04:53:06;101354.94;;;7.51;58.19
43621;BME280;29213;50.770;7.298;2023-05-20T04:55:32;101327.16;;;7.34;57.93
43621;BME280;29213;50.770;7.298;2023-05-20T04:57:57;101357.56;;;7.51;58.11
43621;BME280;29213;50.770;7.298;2023-05-20T05:00:23;101374.91;;;7.67;57.76
43621;BME280;29213;50.770;7.298;2023-05-20T05:02:48;101369.56;;;7.78;57.87
43621;BME280;29213;50.770;7.298;2023-05-20T05:05:14;101300.00;;;7.42;58.06
43621;BME280;29213;50.770;7.298;2023-05-20T05:07:39;101322.03;;;7.54;57.58
43621;BME280;29213;50.770;7.298;2023-05-20T05:10:05;101258.75;;;7.28;58.29
43621;BME280;29213;50.770;7.298;2023-05-20T05:12:31;101204.88;;;6.94;58.05
43621;BME280;29213;50.770;7.298;2023-05-20T05:14:56;101336.75;;;7.79;58.26
43621;BME280;29213;50.770;7.298;2023-05-20T05:17:23;101360.78;;;7.99;58.17
43621;BME280;29213;50.770;7.298;2023-05-20T05:19:48;101302.56;;;7.76;58.08
43621;BME280;29213;50.770;7.298;2023-05-20T05:22:13;101262.84;;;7.53;58.56
43621;BME280;29213;50.770;7.298;2023-05-20T05:24:39;101263.72;;;7.54;58.80
43621;BME280;29213;50.770;7.298;2023-05-20T05:27:04;101249.47;;;7.55;58.54
43621;BME280;29213;50.770;7.298;2023-05-20T05:29:30;101249.47;;;7.55;58.79
43621;BME280;29213;50.770;7.298;2023-05-20T05:31:55;101289.88;;;7.80;58.70
43621;BME280;29213;50.770;7.298;2023-05-20T05:34:20;101349.56;;;8.28;58.69
43621;BME280;29213;50.770;7.298;2023-05-20T05:36:46;101242.66;;;7.73;58.79
43621;BME280;29213;50.770;7.298;2023-05-20T05:39:11;101282.63;;;8.03;59.10
43621;BME280;29213;50.770;7.298;2023-05-20T05:41:36;101242.00;;;7.81;58.93
43621;BME280;29213;50.770;7.298;2023-05-20T05:44:03;101210.25;;;7.70;59.43
43621;BME280;29213;50.770;7.298;2023-05-20T05:46:29;101336.63;;;8.97;60.02
43621;BME280;29213;50.770;7.298;2023-05-20T05:48:55;101316.75;;;9.01;58.72
43621;BME280;29213;50.770;7.298;2023-05-20T05:51:23;101343.66;;;9.18;59.72
43621;BME280;29213;50.770;7.298;2023-05-20T05:53:52;101331.25;;;9.38;59.64
43621;BME280;29213;50.770;7.298;2023-05-20T05:56:17;101250.50;;;9.09;58.96
43621;BME280;29213;50.770;7.298;2023-05-20T05:58:42;101333.44;;;9.84;58.56
43621;BME280;29213;50.770;7.298;2023-05-20T06:01:08;101312.56;;;9.79;57.49
43621;BME280;29213;50.770;7.298;2023-05-20T06:03:34;101242.13;;;9.44;57.32
43621;BME280;29213;50.770;7.298;2023-05-20T06:05:59;101324.88;;;10.00;57.60
43621;BME280;29213;50.770;7.298;2023-05-20T06:08:24;101298.44;;;9.79;57.36
43621;BME280;29213;50.770;7.298;2023-05-20T06:10:50;101240.63;;;9.51;57.04
43621;BME280;29213;50.770;7.298;2023-05-20T06:13:16;101307.81;;;9.93;57.64
43621;BME280;29213;50.770;7.298;2023-05-20T06:15:42;101301.19;;;9.97;57.52
43621;BME280;29213;50.770;7.298;2023-05-20T06:18:07;101254.59;;;9.73;57.23
43621;BME280;29213;50.770;7.298;2023-05-20T06:20:33;101225.50;;;9.52;57.55
43621;BME280;29213;50.770;7.298;2023-05-20T06:22:58;101211.81;;;9.46;57.59
43621;BME280;29213;50.770;7.298;2023-05-20T06:25:24;101282.00;;;9.93;57.64
43621;BME280;29213;50.770;7.298;2023-05-20T06:27:49;101144.78;;;9.13;57.76
43621;BME280;29213;50.770;7.298;2023-05-20T06:30:14;101269.00;;;9.90;57.85
43621;BME280;29213;50.770;7.298;2023-05-20T06:32:40;101240.03;;;9.87;58.11
43621;BME280;29213;50.770;7.298;2023-05-20T06:35:05;101096.97;;;9.03;58.13
43621;BME280;29213;50.770;7.298;2023-05-20T06:37:31;101249.91;;;10.05;57.11
43621;BME280;29213;50.770;7.298;2023-05-20T06:39:56;101291.97;;;10.39;57.32
43621;BME280;29213;50.770;7.298;2023-05-20T06:42:22;101312.97;;;10.62;57.91
43621;BME280;29213;50.770;7.298;2023-05-20T06:44:47;101315.03;;;10.68;57.92
43621;BME280;29213;50.770;7.298;2023-05-20T06:47:14;101306.44;;;10.74;57.36
43621;BME280;29213;50.770;7.298;2023-05-20T06:49:44;101203.81;;;10.14;57.42
43621;BME280;29213;50.770;7.298;2023-05-20T06:52:09;101266.97;;;10.60;56.77
43621;BME280;29213;50.770;7.298;2023-05-20T06:54:37;101251.03;;;10.50;56.34
43621;BME280;29213;50.770;7.298;2023-05-20T06:57:06;101309.75;;;10.96;56.96
43621;BME280;29213;50.770;7.298;2023-05-20T06:59:33;101210.56;;;10.46;56.92
43621;BME280;29213;50.770;7.298;2023-05-20T07:01:59;101296.06;;;11.09;56.89
43621;BME280;29213;50.770;7.298;2023-05-20T07:04:24;101203.50;;;10.55;56.84
43621;BME280;29213;50.770;7.298;2023-05-20T07:06:50;101051.06;;;9.69;56.42
43621;BME280;29213;50.770;7.298;2023-05-20T07:09:15;101219.63;;;10.81;56.56
43621;BME280;29213;50.770;7.298;2023-05-20T07:11:41;101158.69;;;10.50;56.48
43621;BME280;29213;50.770;7.298;2023-05-20T07:14:06;101294.84;;;11.40;56.80
43621;BME280;29213;50.770;7.298;2023-05-20T07:16:33;101196.56;;;10.90;57.50
43621;BME280;29213;50.770;7.298;2023-05-20T07:18:59;101187.91;;;10.88;57.24
43621;BME280;29213;50.770;7.298;2023-05-20T07:21:24;101130.44;;;10.57;57.19
43621;BME280;29213;50.770;7.298;2023-05-20T07:23:50;101175.09;;;10.92;57.27
43621;BME280;29213;50.770;7.298;2023-05-20T07:26:15;101194.06;;;11.07;57.14
43621;BME280;29213;50.770;7.298;2023-05-20T07:28:40;101231.53;;;11.42;57.23
43621;BME280;29213;50.770;7.298;2023-05-20T07:31:06;101174.66;;;11.15;56.66
43621;BME280;29213;50.770;7.298;2023-05-20T07:33:32;101129.28;;;10.88;56.49
43621;BME280;29213;50.770;7.298;2023-05-20T07:35:57;101214.25;;;11.46;56.48
43621;BME280;29213;50.770;7.298;2023-05-20T07:38:22;101215.28;;;11.53;56.42
43621;BME280;29213;50.770;7.298;2023-05-20T07:40:48;101244.50;;;11.99;55.79
43621;BME280;29213;50.770;7.298;2023-05-20T07:43:13;101248.81;;;12.27;54.77
43621;BME280;29213;50.770;7.298;2023-05-20T07:45:38;101093.09;;;11.57;54.58
43621;BME280;29213;50.770;7.298;2023-05-20T07:48:04;101186.09;;;12.31;53.86
43621;BME280;29213;50.770;7.298;2023-05-20T07:50:29;101150.69;;;12.29;53.52
43621;BME280;29213;50.770;7.298;2023-05-20T07:52:55;101090.91;;;12.13;53.07
43621;BME280;29213;50.770;7.298;2023-05-20T07:55:20;101173.19;;;12.78;52.79
43621;BME280;29213;50.770;7.298;2023-05-20T07:57:45;101212.72;;;13.17;52.26
43621;BME280;29213;50.770;7.298;2023-05-20T08:00:11;101250.69;;;13.54;52.16
43621;BME280;29213;50.770;7.298;2023-05-20T08:02:38;101205.88;;;13.40;51.81
43621;BME280;29213;50.770;7.298;2023-05-20T08:05:04;101137.50;;;13.12;51.36
43621;BME280;29213;50.770;7.298;2023-05-20T08:07:29;101213.38;;;13.69;50.71
43621;BME280;29213;50.770;7.298;2023-05-20T08:09:55;101248.31;;;14.01;50.98
43621;BME280;29213;50.770;7.298;2023-05-20T08:12:21;101154.03;;;13.57;50.68
43621;BME280;29213;50.770;7.298;2023-05-20T08:14:46;101132.78;;;13.56;50.27
43621;BME280;29213;50.770;7.298;2023-05-20T08:17:12;101236.84;;;14.32;49.50
43621;BME280;29213;50.770;7.298;2023-05-20T08:19:37;101148.91;;;13.96;49.28
43621;BME280;29213;50.770;7.298;2023-05-20T08:22:03;101212.50;;;14.50;49.62
43621;BME280;29213;50.770;7.298;2023-05-20T08:24:30;101204.78;;;14.55;49.39
43621;BME280;29213;50.770;7.298;2023-05-20T08:26:56;101233.41;;;14.87;49.26
43621;BME280;29213;50.770;7.298;2023-05-20T08:29:21;101243.09;;;14.96;49.37
43621;BME280;29213;50.770;7.298;2023-05-20T08:31:46;101220.31;;;14.92;48.85
43621;BME280;29213;50.770;7.298;2023-05-20T08:34:12;101124.22;;;14.49;48.42
43621;BME280;29213;50.770;7.298;2023-05-20T08:36:37;101221.69;;;15.19;48.24
43621;BME280;29213;50.770;7.298;2023-05-20T08:39:04;101230.25;;;15.38;48.19
43621;BME280;29213;50.770;7.298;2023-05-20T08:41:29;101082.03;;;14.51;48.55
43621;BME280;29213;50.770;7.298;2023-05-20T08:43:56;101209.63;;;15.39;48.44
43621;BME280;29213;50.770;7.298;2023-05-20T08:46:23;101240.28;;;15.59;47.82
43621;BME280;29213;50.770;7.298;2023-05-20T08:48:49;101227.72;;;15.60;48.48
43621;BME280;29213;50.770;7.298;2023-05-20T08:51:15;101159.41;;;15.24;47.48
43621;BME280;29213;50.770;7.298;2023-05-20T08:53:41;101220.78;;;15.66;47.03
43621;BME280;29213;50.770;7.298;2023-05-20T08:56:08;101121.19;;;14.99;45.78
43621;BME280;29213;50.770;7.298;2023-05-20T08:58:34;101136.59;;;15.05;46.78
43621;BME280;29213;50.770;7.298;2023-05-20T09:01:00;101225.94;;;15.52;46.24
43621;BME280;29213;50.770;7.298;2023-05-20T09:03:26;101118.31;;;14.85;45.66
43621;BME280;29213;50.770;7.298;2023-05-20T09:05:52;101192.22;;;15.11;45.27
43621;BME280;29213;50.770;7.298;2023-05-20T09:08:19;101222.06;;;15.31;45.32
43621;BME280;29213;50.770;7.298;2023-05-20T09:10:50;101219.81;;;15.43;46.12
43621;BME280;29213;50.770;7.298;2023-05-20T09:13:16;101198.28;;;15.05;45.18
43621;BME280;29213;50.770;7.298;2023-05-20T09:15:41;101186.84;;;15.11;45.23
43621;BME280;29213;50.770;7.298;2023-05-20T09:18:07;101196.84;;;14.94;45.05
43621;BME280;29213;50.770;7.298;2023-05-20T09:20:35;101216.56;;;15.09;45.45
43621;BME280;29213;50.770;7.298;2023-05-20T09:23:03;101225.41;;;15.10;45.38
43621;BME280;29213;50.770;7.298;2023-05-20T09:25:28;101170.38;;;14.91;45.56
43621;BME280;29213;50.770;7.298;2023-05-20T09:27:54;101150.34;;;14.78;45.34
43621;BME280;29213;50.770;7.298;2023-05-20T09:30:20;101217.78;;;15.22;45.48
43621;BME280;29213;50.770;7.298;2023-05-20T09:35:19;101224.78;;;15.08;45.74
43621;BME280;29213;50.770;7.298;2023-05-20T09:37:46;101216.31;;;15.19;46.10
43621;BME280;29213;50.770;7.298;2023-05-20T09:40:14;101181.31;;;15.13;45.85
43621;BME280;29213;50.770;7.298;2023-05-20T09:43:00;101215.59;;;15.26;45.14
43621;BME280;29213;50.770;7.298;2023-05-20T09:45:26;101217.13;;;15.20;45.28
43621;BME280;29213;50.770;7.298;2023-05-20T09:47:53;101223.81;;;15.24;45.41
43621;BME280;29213;50.770;7.298;2023-05-20T09:50:20;101218.69;;;15.38;45.22
43621;BME280;29213;50.770;7.298;2023-05-20T09:52:49;101087.19;;;14.52;45.22
43621;BME280;29213;50.770;7.298;2023-05-20T09:55:21;101086.44;;;14.67;45.52
43621;BME280;29213;50.770;7.298;2023-05-20T09:57:47;101092.38;;;14.77;45.43
43621;BME280;29213;50.770;7.298;2023-05-20T10:00:14;101216.38;;;15.49;45.47
43621;BME280;29213;50.770;7.298;2023-05-20T10:02:45;101171.50;;;15.20;45.35
43621;BME280;29213;50.770;7.298;2023-05-20T10:05:19;101173.59;;;15.33;45.22
43621;BME280;29213;50.770;7.298;2023-05-20T10:08:20;101213.34;;;15.53;45.12
43621;BME280;29213;50.770;7.298;2023-05-20T10:11:01;101167.03;;;15.12;45.13
43621;BME280;29213;50.770;7.298;2023-05-20T10:14:08;101221.03;;;15.56;45.37
43621;BME280;29213;50.770;7.298;2023-05-20T10:19:29;101209.78;;;15.75;45.22
43621;BME280;29213;50.770;7.298;2023-05-20T10:22:02;101125.75;;;15.36;45.09
43621;BME280;29213;50.770;7.298;2023-05-20T10:24:42;101132.66;;;15.69;45.16
43621;BME280;29213;50.770;7.298;2023-05-20T10:27:13;101199.28;;;16.19;44.47
43621;BME280;29213;50.770;7.298;2023-05-20T10:29:43;101194.72;;;16.20;44.05
43621;BME280;29213;50.770;7.298;2023-05-20T10:32:08;101194.34;;;16.23;44.07
43621;BME280;29213;50.770;7.298;2023-05-20T10:34:45;101186.75;;;16.11;44.21
43621;BME280;29213;50.770;7.298;2023-05-20T10:37:22;101131.53;;;15.63;44.17
43621;BME280;29213;50.770;7.298;2023-05-20T10:39:48;101198.03;;;16.07;44.68
43621;BME280;29213;50.770;7.298;2023-05-20T10:42:14;101177.75;;;16.04;44.99
43621;BME280;29213;50.770;7.298;2023-05-20T10:44:43;101169.97;;;16.09;44.62
43621;BME280;29213;50.770;7.298;2023-05-20T10:47:09;101165.63;;;16.08;44.40
43621;BME280;29213;50.770;7.298;2023-05-20T10:49:35;101180.34;;;16.27;44.57
43621;BME280;29213;50.770;7.298;2023-05-20T10:52:07;101181.34;;;16.41;44.26
43621;BME280;29213;50.770;7.298;2023-05-20T10:54:35;101074.84;;;15.88;44.36
43621;BME280;29213;50.770;7.298;2023-05-20T10:57:05;101177.44;;;16.44;43.85
43621;BME280;29213;50.770;7.298;2023-05-20T10:59:32;101090.06;;;15.96;43.86
43621;BME280;29213;50.770;7.298;2023-05-20T11:01:59;101149.06;;;16.41;44.04
43621;BME280;29213;50.770;7.298;2023-05-20T11:04:25;101182.09;;;16.72;43.53
43621;BME280;29213;50.770;7.298;2023-05-20T11:06:52;101108.88;;;16.33;43.48
43621;BME280;29213;50.770;7.298;2023-05-20T11:09:18;101177.34;;;16.89;43.93
43621;BME280;29213;50.770;7.298;2023-05-20T11:11:43;101073.69;;;16.28;43.38
43621;BME280;29213;50.770;7.298;2023-05-20T11:14:09;101179.75;;;16.84;43.52
43621;BME280;29213;50.770;7.298;2023-05-20T11:16:38;101084.50;;;16.35;44.20
43621;BME280;29213;50.770;7.298;2023-05-20T11:19:06;101105.06;;;16.64;43.29
43621;BME280;29213;50.770;7.298;2023-05-20T11:21:31;101049.88;;;16.25;43.58
43621;BME280;29213;50.770;7.298;2023-05-20T11:23:58;101112.09;;;16.65;43.36
43621;BME280;29213;50.770;7.298;2023-05-20T11:26:23;101116.66;;;16.65;43.17
43621;BME280;29213;50.770;7.298;2023-05-20T11:28:49;101100.44;;;16.58;43.27
43621;BME280;29213;50.770;7.298;2023-05-20T11:31:14;101109.53;;;16.57;43.62
43621;BME280;29213;50.770;7.298;2023-05-20T11:33:42;101070.41;;;16.33;44.24
43621;BME280;29213;50.770;7.298;2023-05-20T11:36:08;101161.47;;;16.79;43.86
43621;BME280;29213;50.770;7.298;2023-05-20T11:38:34;101095.69;;;16.16;44.27
43621;BME280;29213;50.770;7.298;2023-05-20T11:40:59;101082.75;;;16.05;44.69
43621;BME280;29213;50.770;7.298;2023-05-20T11:43:24;101153.38;;;16.58;44.24
43621;BME280;29213;50.770;7.298;2023-05-20T11:45:56;101152.59;;;16.79;44.30
43621;BME280;29213;50.770;7.298;2023-05-20T11:48:25;100979.84;;;15.89;43.76
43621;BME280;29213;50.770;7.298;2023-05-20T11:50:53;101111.31;;;16.87;44.42
43621;BME280;29213;50.770;7.298;2023-05-20T11:53:20;101141.69;;;17.09;43.41
43621;BME280;29213;50.770;7.298;2023-05-20T11:55:51;101115.38;;;17.04;43.77
43621;BME280;29213;50.770;7.298;2023-05-20T11:58:28;101084.31;;;17.02;44.30
43621;BME280;29213;50.770;7.298;2023-05-20T12:00:54;101135.56;;;17.44;43.67
43621;BME280;29213;50.770;7.298;2023-05-20T12:03:20;101051.19;;;17.01;43.15
43621;BME280;29213;50.770;7.298;2023-05-20T12:05:46;101129.81;;;17.54;42.34
43621;BME280;29213;50.770;7.298;2023-05-20T12:08:12;101132.25;;;17.42;42.17
43621;BME280;29213;50.770;7.298;2023-05-20T12:10:38;101048.50;;;17.01;42.18
43621;BME280;29213;50.770;7.298;2023-05-20T12:13:04;101065.19;;;17.18;42.07
43621;BME280;29213;50.770;7.298;2023-05-20T12:15:34;101051.50;;;17.13;42.29
43621;BME280;29213;50.770;7.298;2023-05-20T12:18:00;101126.19;;;17.68;42.68
43621;BME280;29213;50.770;7.298;2023-05-20T12:20:25;101087.38;;;17.56;42.38
43621;BME280;29213;50.770;7.298;2023-05-20T12:22:51;101026.84;;;17.16;42.16
43621;BME280;29213;50.770;7.298;2023-05-20T12:25:17;101076.72;;;17.41;42.21
43621;BME280;29213;50.770;7.298;2023-05-20T12:27:44;101082.03;;;17.27;42.38
43621;BME280;29213;50.770;7.298;2023-05-20T12:30:14;101127.38;;;17.59;42.69
43621;BME280;29213;50.770;7.298;2023-05-20T12:32:40;101110.78;;;17.55;42.66
43621;BME280;29213;50.770;7.298;2023-05-20T12:35:06;101097.91;;;17.51;42.51
43621;BME280;29213;50.770;7.298;2023-05-20T12:37:31;101011.91;;;17.07;42.43
43621;BME280;29213;50.770;7.298;2023-05-20T12:39:58;101056.94;;;17.27;42.15
43621;BME280;29213;50.770;7.298;2023-05-20T12:42:23;101045.19;;;17.28;42.87
43621;BME280;29213;50.770;7.298;2023-05-20T12:44:48;101020.84;;;17.14;41.96
43621;BME280;29213;50.770;7.298;2023-05-20T12:47:14;101025.19;;;17.15;42.29
43621;BME280;29213;50.770;7.298;2023-05-20T12:49:39;101100.75;;;17.71;42.41
43621;BME280;29213;50.770;7.298;2023-05-20T12:52:05;101062.19;;;17.35;42.14
43621;BME280;29213;50.770;7.298;2023-05-20T12:54:30;101057.91;;;17.47;42.54
43621;BME280;29213;50.770;7.298;2023-05-20T12:56:57;101095.72;;;17.68;42.37